createdAt,value
2019-05-20T00:00:04.403Z,10.07
2019-05-20T00:00:09.913Z,10.56
2019-05-20T00:00:14.405Z,10.72
2019-05-20T00:00:19.404Z,10.48
2019-05-20T00:00:24.406Z,9.66
2019-05-20T00:00:29.408Z,10.43
2019-05-20T00:00:34.547Z,10.68
2019-05-20T00:00:39.910Z,10.30
2019-05-20T00:00:44.419Z,9.34
2019-05-20T00:00:49.411Z,10.03
2019-05-20T00:00:54.483Z,9.25
2019-05-20T00:00:59.412Z,9.63
2019-05-20T00:01:04.414Z,10.42
2019-05-20T00:01:09.415Z,10.67
2019-05-20T00:01:14.492Z,10.76
2019-05-20T00:01:19.417Z,10.79
2019-05-20T00:01:24.423Z,10.08
2019-05-20T00:01:29.421Z,9.44
2019-05-20T00:01:34.421Z,9.69
2019-05-20T00:01:39.420Z,10.44
2019-05-20T00:01:44.422Z,10.68
2019-05-20T00:01:49.424Z,10.76
2019-05-20T00:01:54.575Z,8.83
2019-05-20T00:01:59.425Z,10.15
2019-05-20T00:02:04.426Z,9.76
2019-05-20T00:02:09.432Z,9.88
2019-05-20T00:02:14.427Z,10.50
2019-05-20T00:02:19.440Z,10.70
2019-05-20T00:02:24.430Z,10.77
2019-05-20T00:02:29.431Z,10.07
2019-05-20T00:02:34.432Z,10.56
2019-05-20T00:02:39.434Z,10.43
2019-05-20T00:02:44.434Z,10.68
2019-05-20T00:02:49.435Z,10.76
2019-05-20T00:02:54.436Z,9.70
2019-05-20T00:02:59.560Z,10.44
2019-05-20T00:03:04.693Z,10.68
2019-05-20T00:03:09.439Z,10.76
2019-05-20T00:03:14.439Z,10.79
2019-05-20T00:03:19.441Z,10.80
2019-05-20T00:03:24.441Z,10.80
2019-05-20T00:03:29.443Z,10.80
2019-05-20T00:03:34.444Z,10.80
2019-05-20T00:03:39.445Z,10.80
2019-05-20T00:03:44.446Z,10.80
2019-05-20T00:03:49.447Z,10.80
2019-05-20T00:03:54.448Z,10.80
2019-05-20T00:03:59.458Z,10.80
2019-05-20T00:04:04.449Z,10.80
2019-05-20T00:04:09.459Z,10.80
2019-05-20T00:04:14.452Z,10.80
2019-05-20T00:04:19.453Z,10.80
2019-05-20T00:04:24.453Z,10.80
2019-05-20T00:04:29.453Z,10.80
2019-05-20T00:04:34.455Z,10.80
2019-05-20T00:04:39.455Z,10.80
2019-05-20T00:04:44.498Z,10.80
2019-05-20T00:04:49.500Z,10.80
2019-05-20T00:04:54.500Z,10.80
2019-05-20T00:04:59.501Z,10.80
2019-05-20T00:05:04.506Z,10.80
2019-05-20T00:05:09.502Z,11.52
2019-05-20T00:05:14.504Z,12.59
2019-05-20T00:05:19.505Z,12.72
2019-05-20T00:05:24.507Z,10.71
2019-05-20T00:05:29.506Z,12.53
2019-05-20T00:05:35.721Z,12.09
2019-05-20T00:05:39.526Z,12.92
2019-05-20T00:05:44.516Z,13.62
2019-05-20T00:05:49.519Z,14.14
2019-05-20T00:05:54.514Z,14.32
2019-05-20T00:05:59.512Z,14.08
2019-05-20T00:06:04.525Z,13.83
2019-05-20T00:06:09.527Z,12.81
2019-05-20T00:06:14.515Z,13.88
2019-05-20T00:06:19.517Z,14.23
2019-05-20T00:06:24.523Z,13.77
2019-05-20T00:06:29.517Z,14.19
2019-05-20T00:06:34.519Z,14.33
2019-05-20T00:06:39.661Z,14.38
2019-05-20T00:06:44.520Z,13.67
2019-05-20T00:06:49.523Z,13.87
2019-05-20T00:06:54.523Z,14.23
2019-05-20T00:06:59.525Z,14.34
2019-05-20T00:07:04.525Z,14.38
2019-05-20T00:07:09.541Z,14.39
2019-05-20T00:07:14.535Z,12.55
2019-05-20T00:07:19.529Z,11.74
2019-05-20T00:07:24.529Z,12.95
2019-05-20T00:07:29.531Z,11.80
2019-05-20T00:07:34.533Z,11.85
2019-05-20T00:07:39.533Z,11.14
2019-05-20T00:07:44.541Z,10.91
2019-05-20T00:07:49.534Z,10.84
2019-05-20T00:07:54.535Z,10.81
2019-05-20T00:07:59.542Z,10.80
2019-05-20T00:08:04.537Z,10.80
2019-05-20T00:08:09.538Z,10.80
2019-05-20T00:08:14.539Z,10.80
2019-05-20T00:08:19.540Z,10.80
2019-05-20T00:08:24.544Z,10.80
2019-05-20T00:08:29.542Z,10.80
2019-05-20T00:08:34.542Z,11.52
2019-05-20T00:08:39.547Z,11.61
2019-05-20T00:08:44.546Z,11.43
2019-05-20T00:08:49.561Z,11.01
2019-05-20T00:08:54.548Z,10.87
2019-05-20T00:08:59.547Z,10.82
2019-05-20T00:09:04.549Z,11.90
2019-05-20T00:09:09.550Z,11.16
2019-05-20T00:09:14.552Z,10.92
2019-05-20T00:09:19.553Z,10.84
2019-05-20T00:09:24.553Z,10.81
2019-05-20T00:09:29.590Z,10.80
2019-05-20T00:09:34.558Z,10.80
2019-05-20T00:09:39.555Z,10.80
2019-05-20T00:09:44.558Z,10.80
2019-05-20T00:09:49.568Z,10.80
2019-05-20T00:09:54.561Z,10.80
2019-05-20T00:09:59.559Z,10.80
2019-05-20T00:10:04.560Z,10.80
2019-05-20T00:10:09.562Z,10.80
2019-05-20T00:10:15.035Z,10.80
2019-05-20T00:10:19.565Z,10.80
2019-05-20T00:10:24.573Z,10.80
2019-05-20T00:10:29.566Z,10.80
2019-05-20T00:10:34.568Z,10.80
2019-05-20T00:10:39.572Z,10.80
2019-05-20T00:10:44.568Z,10.80
2019-05-20T00:10:49.812Z,10.80
2019-05-20T00:10:54.571Z,10.80
2019-05-20T00:10:59.572Z,10.80
2019-05-20T00:11:04.589Z,11.52
2019-05-20T00:11:09.824Z,11.04
2019-05-20T00:11:14.573Z,10.88
2019-05-20T00:11:19.575Z,10.83
2019-05-20T00:11:24.576Z,10.81
2019-05-20T00:11:29.630Z,10.80
2019-05-20T00:11:34.577Z,11.38
2019-05-20T00:11:39.578Z,11.57
2019-05-20T00:11:44.579Z,11.77
2019-05-20T00:11:49.584Z,12.30
2019-05-20T00:11:54.586Z,11.66
2019-05-20T00:11:59.583Z,11.84
2019-05-20T00:12:04.583Z,12.23
2019-05-20T00:12:09.587Z,11.84
2019-05-20T00:12:14.595Z,11.86
2019-05-20T00:12:19.586Z,11.15
2019-05-20T00:12:24.588Z,10.91
2019-05-20T00:12:29.595Z,10.84
2019-05-20T00:12:34.614Z,10.81
2019-05-20T00:12:39.591Z,10.80
2019-05-20T00:12:44.601Z,10.80
2019-05-20T00:12:49.593Z,10.80
2019-05-20T00:12:54.595Z,10.80
2019-05-20T00:12:59.597Z,10.80
2019-05-20T00:13:04.597Z,10.80
2019-05-20T00:13:09.602Z,10.80
2019-05-20T00:13:14.598Z,10.80
2019-05-20T00:13:19.600Z,10.80
2019-05-20T00:13:24.600Z,10.80
2019-05-20T00:13:29.600Z,10.80
2019-05-20T00:13:34.795Z,10.80
2019-05-20T00:13:39.603Z,10.80
2019-05-20T00:13:44.604Z,10.80
2019-05-20T00:13:49.606Z,10.80
2019-05-20T00:13:54.607Z,10.80
2019-05-20T00:13:59.646Z,10.80
2019-05-20T00:14:04.613Z,10.80
2019-05-20T00:14:09.608Z,10.80
2019-05-20T00:14:14.610Z,10.80
2019-05-20T00:14:19.610Z,10.80
2019-05-20T00:14:24.615Z,10.80
2019-05-20T00:14:29.615Z,10.80
2019-05-20T00:14:34.614Z,10.80
2019-05-20T00:14:39.615Z,10.80
2019-05-20T00:14:44.634Z,11.09
2019-05-20T00:14:49.618Z,10.90
2019-05-20T00:14:54.616Z,12.01
2019-05-20T00:14:59.619Z,12.86
2019-05-20T00:15:05.021Z,12.49
2019-05-20T00:15:09.621Z,12.11
2019-05-20T00:15:14.622Z,12.53
2019-05-20T00:15:19.622Z,13.21
2019-05-20T00:15:24.623Z,11.59
2019-05-20T00:15:29.625Z,11.06
2019-05-20T00:15:34.626Z,10.88
2019-05-20T00:15:39.626Z,10.83
2019-05-20T00:15:44.629Z,11.53
2019-05-20T00:15:49.628Z,11.04
2019-05-20T00:15:54.629Z,10.88
2019-05-20T00:15:59.633Z,10.83
2019-05-20T00:16:04.631Z,10.81
2019-05-20T00:16:09.772Z,11.26
2019-05-20T00:16:17.489Z,10.95
2019-05-20T00:16:19.634Z,10.85
2019-05-20T00:16:24.637Z,10.82
2019-05-20T00:16:30.092Z,10.81
2019-05-20T00:16:34.637Z,10.80
2019-05-20T00:16:39.640Z,10.80
2019-05-20T00:16:44.640Z,10.80
2019-05-20T00:16:50.129Z,10.08
2019-05-20T00:16:54.641Z,10.56
2019-05-20T00:16:59.644Z,9.78
2019-05-20T00:17:04.643Z,10.47
2019-05-20T00:17:09.646Z,10.69
2019-05-20T00:17:14.646Z,10.76
2019-05-20T00:17:19.645Z,10.79
2019-05-20T00:17:24.647Z,10.80
2019-05-20T00:17:29.648Z,10.80
2019-05-20T00:17:34.655Z,10.80
2019-05-20T00:17:39.676Z,10.80
2019-05-20T00:17:44.656Z,10.80
2019-05-20T00:17:49.651Z,10.80
2019-05-20T00:17:54.655Z,10.80
2019-05-20T00:17:59.654Z,9.39
2019-05-20T00:18:04.677Z,10.34
2019-05-20T00:18:09.655Z,9.35
2019-05-20T00:18:14.656Z,9.24
2019-05-20T00:18:19.658Z,9.92
2019-05-20T00:18:24.662Z,10.51
2019-05-20T00:18:29.664Z,10.13
2019-05-20T00:18:34.662Z,10.58
2019-05-20T00:18:39.662Z,10.73
2019-05-20T00:18:44.671Z,10.78
2019-05-20T00:18:49.663Z,10.79
2019-05-20T00:18:54.701Z,10.80
2019-05-20T00:18:59.665Z,10.80
2019-05-20T00:19:04.670Z,10.80
2019-05-20T00:19:09.726Z,10.80
2019-05-20T00:19:14.668Z,10.80
2019-05-20T00:19:19.670Z,10.80
2019-05-20T00:19:24.686Z,10.80
2019-05-20T00:19:29.672Z,10.08
2019-05-20T00:19:34.672Z,9.16
2019-05-20T00:19:39.673Z,10.98
2019-05-20T00:19:44.674Z,10.86
2019-05-20T00:19:49.676Z,10.82
2019-05-20T00:19:54.683Z,10.81
2019-05-20T00:19:59.682Z,10.80
2019-05-20T00:20:04.678Z,10.80
2019-05-20T00:20:09.684Z,10.80
2019-05-20T00:20:14.680Z,9.50
2019-05-20T00:20:19.681Z,9.34
2019-05-20T00:20:24.682Z,10.32
2019-05-20T00:20:29.687Z,9.92
2019-05-20T00:20:34.684Z,10.51
2019-05-20T00:20:39.685Z,10.71
2019-05-20T00:20:44.910Z,10.77
2019-05-20T00:20:49.687Z,10.79
2019-05-20T00:20:54.688Z,10.80
2019-05-20T00:20:59.690Z,10.80
2019-05-20T00:21:04.691Z,10.50
2019-05-20T00:21:09.691Z,10.24
2019-05-20T00:21:14.695Z,9.14
2019-05-20T00:21:19.692Z,10.26
2019-05-20T00:21:24.707Z,10.62
2019-05-20T00:21:29.696Z,10.28
2019-05-20T00:21:34.695Z,10.05
2019-05-20T00:21:39.696Z,9.32
2019-05-20T00:21:44.697Z,9.37
2019-05-20T00:21:49.701Z,9.96
2019-05-20T00:21:54.701Z,10.53
2019-05-20T00:21:59.699Z,10.71
2019-05-20T00:22:04.701Z,10.77
2019-05-20T00:22:09.701Z,10.79
2019-05-20T00:22:14.703Z,10.08
2019-05-20T00:22:19.704Z,8.44
2019-05-20T00:22:24.705Z,10.03
2019-05-20T00:22:29.706Z,10.55
2019-05-20T00:22:34.706Z,10.72
2019-05-20T00:22:39.710Z,10.77
2019-05-20T00:22:44.710Z,10.79
2019-05-20T00:22:49.730Z,10.50
2019-05-20T00:22:54.710Z,10.70
2019-05-20T00:22:59.712Z,10.77
2019-05-20T00:23:04.713Z,10.07
2019-05-20T00:23:09.714Z,9.62
2019-05-20T00:23:14.716Z,10.41
2019-05-20T00:23:19.728Z,9.20
2019-05-20T00:23:24.722Z,10.27
2019-05-20T00:23:29.717Z,10.33
2019-05-20T00:23:34.720Z,10.19
2019-05-20T00:23:39.721Z,10.60
2019-05-20T00:23:44.721Z,9.18
2019-05-20T00:23:49.723Z,9.33
2019-05-20T00:23:54.725Z,10.32
2019-05-20T00:23:59.724Z,10.64
2019-05-20T00:24:04.725Z,10.75
2019-05-20T00:24:09.726Z,10.06
2019-05-20T00:24:14.730Z,9.26
2019-05-20T00:24:19.947Z,9.35
2019-05-20T00:24:24.729Z,9.57
2019-05-20T00:24:29.729Z,9.53
2019-05-20T00:24:34.730Z,10.38
2019-05-20T00:24:39.731Z,10.09
2019-05-20T00:24:44.878Z,10.57
2019-05-20T00:24:49.733Z,10.72
2019-05-20T00:24:54.736Z,10.77
2019-05-20T00:24:59.741Z,9.85
2019-05-20T00:25:04.736Z,10.49
2019-05-20T00:25:09.738Z,10.12
2019-05-20T00:25:14.739Z,10.28
2019-05-20T00:25:19.743Z,10.63
2019-05-20T00:25:24.741Z,9.08
2019-05-20T00:25:29.742Z,8.76
2019-05-20T00:25:34.743Z,9.41
2019-05-20T00:25:39.744Z,9.16
2019-05-20T00:25:44.745Z,9.51
2019-05-20T00:25:49.786Z,10.38
2019-05-20T00:25:54.747Z,10.66
2019-05-20T00:25:59.747Z,10.75
2019-05-20T00:26:04.750Z,10.79
2019-05-20T00:26:09.749Z,10.80
2019-05-20T00:26:14.751Z,10.80
2019-05-20T00:26:19.805Z,10.80
2019-05-20T00:26:24.803Z,10.80
2019-05-20T00:26:29.813Z,10.80
2019-05-20T00:26:34.805Z,10.80
2019-05-20T00:26:39.805Z,10.80
2019-05-20T00:26:44.807Z,10.80
2019-05-20T00:26:49.807Z,10.08
2019-05-20T00:26:54.808Z,10.56
2019-05-20T00:26:59.813Z,10.72
2019-05-20T00:27:04.810Z,10.77
2019-05-20T00:27:09.812Z,10.79
2019-05-20T00:27:14.812Z,10.50
2019-05-20T00:27:19.813Z,10.70
2019-05-20T00:27:24.899Z,10.05
2019-05-20T00:27:29.984Z,10.55
2019-05-20T00:27:34.815Z,10.72
2019-05-20T00:27:39.818Z,10.77
2019-05-20T00:27:44.818Z,10.79
2019-05-20T00:27:50.188Z,10.80
2019-05-20T00:27:54.822Z,10.80
2019-05-20T00:27:59.820Z,10.50
2019-05-20T00:28:04.823Z,10.13
2019-05-20T00:28:09.841Z,9.54
2019-05-20T00:28:14.823Z,9.06
2019-05-20T00:28:19.830Z,8.75
2019-05-20T00:28:24.941Z,10.13
2019-05-20T00:28:29.826Z,10.00
2019-05-20T00:28:34.826Z,9.71
2019-05-20T00:28:39.828Z,9.20
2019-05-20T00:28:44.831Z,8.32
2019-05-20T00:28:49.852Z,9.16
2019-05-20T00:28:54.841Z,8.97
2019-05-20T00:28:59.834Z,8.87
2019-05-20T00:29:04.834Z,9.15
2019-05-20T00:29:09.835Z,10.26
2019-05-20T00:29:14.835Z,9.90
2019-05-20T00:29:19.845Z,10.51
2019-05-20T00:29:24.845Z,10.70
2019-05-20T00:29:29.841Z,9.47
2019-05-20T00:29:34.841Z,8.82
2019-05-20T00:29:39.841Z,9.57
2019-05-20T00:29:44.843Z,9.68
2019-05-20T00:29:49.842Z,10.06
2019-05-20T00:29:54.847Z,9.61
2019-05-20T00:29:59.850Z,8.57
2019-05-20T00:30:04.857Z,8.59
2019-05-20T00:30:09.846Z,9.32
2019-05-20T00:30:14.853Z,9.60
2019-05-20T00:30:19.854Z,10.41
2019-05-20T00:30:24.852Z,10.67
2019-05-20T00:30:29.852Z,9.00
2019-05-20T00:30:34.852Z,7.79
2019-05-20T00:30:39.858Z,7.39
2019-05-20T00:30:44.854Z,7.84
2019-05-20T00:30:49.854Z,9.25
2019-05-20T00:30:54.857Z,8.17
2019-05-20T00:30:59.949Z,7.52
2019-05-20T00:31:04.857Z,7.30
2019-05-20T00:31:09.858Z,6.66
2019-05-20T00:31:14.859Z,6.27
2019-05-20T00:31:19.868Z,5.71
2019-05-20T00:31:24.863Z,6.34
2019-05-20T00:31:29.862Z,6.92
2019-05-20T00:31:34.864Z,7.11
2019-05-20T00:31:39.868Z,7.17
2019-05-20T00:31:44.865Z,7.91
2019-05-20T00:31:49.866Z,8.26
2019-05-20T00:31:54.866Z,7.55
2019-05-20T00:31:59.868Z,8.03
2019-05-20T00:32:04.874Z,7.47
2019-05-20T00:32:09.871Z,7.29
2019-05-20T00:32:14.871Z,7.23
2019-05-20T00:32:19.872Z,8.91
2019-05-20T00:32:24.885Z,8.06
2019-05-20T00:32:29.875Z,9.24
2019-05-20T00:32:34.876Z,7.87
2019-05-20T00:32:39.875Z,7.42
2019-05-20T00:32:44.877Z,7.27
2019-05-20T00:32:50.154Z,7.22
2019-05-20T00:32:54.932Z,7.67
2019-05-20T00:32:59.879Z,7.35
2019-05-20T00:33:04.879Z,7.25
2019-05-20T00:33:09.884Z,7.22
2019-05-20T00:33:14.883Z,6.84
2019-05-20T00:33:19.887Z,7.08
2019-05-20T00:33:25.132Z,7.16
2019-05-20T00:33:29.885Z,7.19
2019-05-20T00:33:34.888Z,7.20
2019-05-20T00:33:39.889Z,6.33
2019-05-20T00:33:44.893Z,6.91
2019-05-20T00:33:49.889Z,7.11
2019-05-20T00:33:54.896Z,7.17
2019-05-20T00:33:59.891Z,7.19
2019-05-20T00:34:04.891Z,6.18
2019-05-20T00:34:09.893Z,5.92
2019-05-20T00:34:14.896Z,5.60
2019-05-20T00:34:20.001Z,6.31
2019-05-20T00:34:24.896Z,6.15
2019-05-20T00:34:29.898Z,5.10
2019-05-20T00:34:34.898Z,5.39
2019-05-20T00:34:39.898Z,6.15
2019-05-20T00:34:44.900Z,6.85
2019-05-20T00:34:49.905Z,6.37
2019-05-20T00:34:54.961Z,5.38
2019-05-20T00:34:59.903Z,4.48
2019-05-20T00:35:04.903Z,3.89
2019-05-20T00:35:09.905Z,4.41
2019-05-20T00:35:14.908Z,5.05
2019-05-20T00:35:19.907Z,4.44
2019-05-20T00:35:24.908Z,5.17
2019-05-20T00:35:30.073Z,5.24
2019-05-20T00:35:34.977Z,6.26
2019-05-20T00:35:39.912Z,5.23
2019-05-20T00:35:44.913Z,4.13
2019-05-20T00:35:49.914Z,3.77
2019-05-20T00:35:54.915Z,5.41
2019-05-20T00:35:59.925Z,4.19
2019-05-20T00:36:04.915Z,5.18
2019-05-20T00:36:10.112Z,5.21
2019-05-20T00:36:14.919Z,4.13
2019-05-20T00:36:19.919Z,3.77
2019-05-20T00:36:24.919Z,4.95
2019-05-20T00:36:29.920Z,6.46
2019-05-20T00:36:34.923Z,6.96
2019-05-20T00:36:39.923Z,7.12
2019-05-20T00:36:44.924Z,6.45
2019-05-20T00:36:49.924Z,6.59
2019-05-20T00:36:54.926Z,7.00
2019-05-20T00:36:59.928Z,6.38
2019-05-20T00:37:04.930Z,6.21
2019-05-20T00:37:09.928Z,5.18
2019-05-20T00:37:14.932Z,6.54
2019-05-20T00:37:19.930Z,6.98
2019-05-20T00:37:25.183Z,6.41
2019-05-20T00:37:29.932Z,5.47
2019-05-20T00:37:34.933Z,6.34
2019-05-20T00:37:39.933Z,5.16
2019-05-20T00:37:44.935Z,4.41
2019-05-20T00:37:49.937Z,3.86
2019-05-20T00:37:54.938Z,3.69
2019-05-20T00:37:59.938Z,3.63
2019-05-20T00:38:05.200Z,4.79
2019-05-20T00:38:09.940Z,3.99
2019-05-20T00:38:14.941Z,3.73
2019-05-20T00:38:19.943Z,3.64
2019-05-20T00:38:24.944Z,3.61
2019-05-20T00:38:29.943Z,3.90
2019-05-20T00:38:34.944Z,3.70
2019-05-20T00:38:39.946Z,3.63
2019-05-20T00:38:44.948Z,4.19
2019-05-20T00:38:49.947Z,4.66
2019-05-20T00:38:54.947Z,3.95
2019-05-20T00:39:00.394Z,3.71
2019-05-20T00:39:04.950Z,4.58
2019-05-20T00:39:09.951Z,5.25
2019-05-20T00:39:14.953Z,4.51
2019-05-20T00:39:19.953Z,4.47
2019-05-20T00:39:24.954Z,3.89
2019-05-20T00:39:29.955Z,3.69
2019-05-20T00:39:34.956Z,3.63
2019-05-20T00:39:39.957Z,3.61
2019-05-20T00:39:44.959Z,3.60
2019-05-20T00:39:49.960Z,3.60
2019-05-20T00:39:55.001Z,3.60
2019-05-20T00:40:00.014Z,4.36
2019-05-20T00:40:05.010Z,4.79
2019-05-20T00:40:10.008Z,3.99
2019-05-20T00:40:15.010Z,3.73
2019-05-20T00:40:20.013Z,3.64
2019-05-20T00:40:25.026Z,3.61
2019-05-20T00:40:30.018Z,3.60
2019-05-20T00:40:35.012Z,3.60
2019-05-20T00:40:40.017Z,3.60
2019-05-20T00:40:45.016Z,3.60
2019-05-20T00:40:50.013Z,3.60
2019-05-20T00:40:55.016Z,3.60
2019-05-20T00:41:00.046Z,4.06
2019-05-20T00:41:05.017Z,4.93
2019-05-20T00:41:10.026Z,4.04
2019-05-20T00:41:15.018Z,3.74
2019-05-20T00:41:20.018Z,3.65
2019-05-20T00:41:25.020Z,3.62
2019-05-20T00:41:30.021Z,3.61
2019-05-20T00:41:35.022Z,3.60
2019-05-20T00:41:40.022Z,3.60
2019-05-20T00:41:45.068Z,3.60
2019-05-20T00:41:50.024Z,3.60
2019-05-20T00:41:55.025Z,3.60
2019-05-20T00:42:00.026Z,3.60
2019-05-20T00:42:05.027Z,4.18
2019-05-20T00:42:10.028Z,4.36
2019-05-20T00:42:15.380Z,4.57
2019-05-20T00:42:20.033Z,5.67
2019-05-20T00:42:25.037Z,6.70
2019-05-20T00:42:30.033Z,7.04
2019-05-20T00:42:35.034Z,7.15
2019-05-20T00:42:40.034Z,6.09
2019-05-20T00:42:45.050Z,5.17
2019-05-20T00:42:50.037Z,5.35
2019-05-20T00:42:55.038Z,6.30
2019-05-20T00:43:00.037Z,6.33
2019-05-20T00:43:05.039Z,6.91
2019-05-20T00:43:10.048Z,7.11
2019-05-20T00:43:15.041Z,6.08
2019-05-20T00:43:20.043Z,6.46
2019-05-20T00:43:25.052Z,6.96
2019-05-20T00:43:30.044Z,7.12
2019-05-20T00:43:35.047Z,6.30
2019-05-20T00:43:40.046Z,6.91
2019-05-20T00:43:45.047Z,7.10
2019-05-20T00:43:50.076Z,6.59
2019-05-20T00:43:55.048Z,6.42
2019-05-20T00:44:00.051Z,6.95
2019-05-20T00:44:05.051Z,7.12
2019-05-20T00:44:10.065Z,7.17
2019-05-20T00:44:15.052Z,7.19
2019-05-20T00:44:20.118Z,7.20
2019-05-20T00:44:25.054Z,7.20
2019-05-20T00:44:30.056Z,7.20
2019-05-20T00:44:35.057Z,7.20
2019-05-20T00:44:40.057Z,7.20
2019-05-20T00:44:45.059Z,7.20
2019-05-20T00:44:50.063Z,7.20
2019-05-20T00:44:55.060Z,7.20
2019-05-20T00:45:00.061Z,7.20
2019-05-20T00:45:05.062Z,7.20
2019-05-20T00:45:10.261Z,7.20
2019-05-20T00:45:15.065Z,7.20
2019-05-20T00:45:20.065Z,7.20
2019-05-20T00:45:25.070Z,7.20
2019-05-20T00:45:30.067Z,8.07
2019-05-20T00:45:35.069Z,7.78
2019-05-20T00:45:40.071Z,8.69
2019-05-20T00:45:45.071Z,8.15
2019-05-20T00:45:50.071Z,8.09
2019-05-20T00:45:55.071Z,7.86
2019-05-20T00:46:00.072Z,9.17
2019-05-20T00:46:05.074Z,9.18
2019-05-20T00:46:10.075Z,7.85
2019-05-20T00:46:15.077Z,7.41
2019-05-20T00:46:20.077Z,7.27
2019-05-20T00:46:25.078Z,7.22
2019-05-20T00:46:30.079Z,7.21
2019-05-20T00:46:35.081Z,5.45
2019-05-20T00:46:40.081Z,5.68
2019-05-20T00:46:45.083Z,4.28
2019-05-20T00:46:50.083Z,6.24
2019-05-20T00:46:55.090Z,6.89
2019-05-20T00:47:00.085Z,6.73
2019-05-20T00:47:05.114Z,7.05
2019-05-20T00:47:10.086Z,6.78
2019-05-20T00:47:15.094Z,6.49
2019-05-20T00:47:20.094Z,6.67
2019-05-20T00:47:25.095Z,6.31
2019-05-20T00:47:30.091Z,6.33
2019-05-20T00:47:35.093Z,5.83
2019-05-20T00:47:40.094Z,6.75
2019-05-20T00:47:45.349Z,7.05
2019-05-20T00:47:50.097Z,7.15
2019-05-20T00:47:55.097Z,7.18
2019-05-20T00:48:00.096Z,7.19
2019-05-20T00:48:05.103Z,7.20
2019-05-20T00:48:10.099Z,7.20
2019-05-20T00:48:15.100Z,7.92
2019-05-20T00:48:20.100Z,8.16
2019-05-20T00:48:25.101Z,9.21
2019-05-20T00:48:30.110Z,8.90
2019-05-20T00:48:35.105Z,9.88
2019-05-20T00:48:40.105Z,10.50
2019-05-20T00:48:45.107Z,10.24
2019-05-20T00:48:50.203Z,10.62
2019-05-20T00:48:55.108Z,10.16
2019-05-20T00:49:00.110Z,9.93
2019-05-20T00:49:05.110Z,10.51
2019-05-20T00:49:10.110Z,9.53
2019-05-20T00:49:15.116Z,10.38
2019-05-20T00:49:20.111Z,8.96
2019-05-20T00:49:25.114Z,8.90
2019-05-20T00:49:30.113Z,10.18
2019-05-20T00:49:35.396Z,10.60
2019-05-20T00:49:40.115Z,10.01
2019-05-20T00:49:45.118Z,10.25
2019-05-20T00:49:50.117Z,9.90
2019-05-20T00:49:55.118Z,10.50
2019-05-20T00:50:00.119Z,10.70
2019-05-20T00:50:05.125Z,10.05
2019-05-20T00:50:10.122Z,10.55
2019-05-20T00:50:15.122Z,10.14
2019-05-20T00:50:20.125Z,10.12
2019-05-20T00:50:25.126Z,10.58
2019-05-20T00:50:30.124Z,10.27
2019-05-20T00:50:35.126Z,10.63
2019-05-20T00:50:40.128Z,10.74
2019-05-20T00:50:45.130Z,10.78
2019-05-20T00:50:50.129Z,10.79
2019-05-20T00:50:55.131Z,10.43
2019-05-20T00:51:00.139Z,10.68
2019-05-20T00:51:05.134Z,10.30
2019-05-20T00:51:10.137Z,10.64
2019-05-20T00:51:15.135Z,10.75
2019-05-20T00:51:20.138Z,9.60
2019-05-20T00:51:25.136Z,8.56
2019-05-20T00:51:30.137Z,8.52
2019-05-20T00:51:35.138Z,7.63
2019-05-20T00:51:40.139Z,7.34
2019-05-20T00:51:45.641Z,7.25
2019-05-20T00:51:50.141Z,7.88
2019-05-20T00:51:55.142Z,7.42
2019-05-20T00:52:00.145Z,8.10
2019-05-20T00:52:05.173Z,8.22
2019-05-20T00:52:10.146Z,7.83
2019-05-20T00:52:15.147Z,7.41
2019-05-20T00:52:20.149Z,7.27
2019-05-20T00:52:25.148Z,7.22
2019-05-20T00:52:30.149Z,7.21
2019-05-20T00:52:35.169Z,7.20
2019-05-20T00:52:40.152Z,7.57
2019-05-20T00:52:45.153Z,7.32
2019-05-20T00:52:50.153Z,8.33
2019-05-20T00:52:55.154Z,9.27
2019-05-20T00:53:00.155Z,7.88
2019-05-20T00:53:05.160Z,7.42
2019-05-20T00:53:10.157Z,7.94
2019-05-20T00:53:15.242Z,8.16
2019-05-20T00:53:20.165Z,9.94
2019-05-20T00:53:25.159Z,8.39
2019-05-20T00:53:30.161Z,8.31
2019-05-20T00:53:35.163Z,7.86
2019-05-20T00:53:40.163Z,7.42
2019-05-20T00:53:45.364Z,7.27
2019-05-20T00:53:50.165Z,7.22
2019-05-20T00:53:55.166Z,7.21
2019-05-20T00:54:00.167Z,7.20
2019-05-20T00:54:05.169Z,8.29
2019-05-20T00:54:10.173Z,7.93
2019-05-20T00:54:15.176Z,7.44
2019-05-20T00:54:20.174Z,7.28
2019-05-20T00:54:25.173Z,7.23
2019-05-20T00:54:30.172Z,8.97
2019-05-20T00:54:35.174Z,7.78
2019-05-20T00:54:40.877Z,9.81
2019-05-20T00:54:45.176Z,10.48
2019-05-20T00:54:50.177Z,9.36
2019-05-20T00:54:55.177Z,10.33
2019-05-20T00:55:00.267Z,9.98
2019-05-20T00:55:05.181Z,10.53
2019-05-20T00:55:10.179Z,11.38
2019-05-20T00:55:15.181Z,11.56
2019-05-20T00:55:20.184Z,11.05
2019-05-20T00:55:25.184Z,10.88
2019-05-20T00:55:30.184Z,10.83
2019-05-20T00:55:35.192Z,10.81
2019-05-20T00:55:40.186Z,10.80
2019-05-20T00:55:45.188Z,10.80
2019-05-20T00:55:50.200Z,10.80
2019-05-20T00:55:55.189Z,10.43
2019-05-20T00:56:00.193Z,9.96
2019-05-20T00:56:05.192Z,10.52
2019-05-20T00:56:10.193Z,10.13
2019-05-20T00:56:15.193Z,10.58
2019-05-20T00:56:20.195Z,10.01
2019-05-20T00:56:25.196Z,9.30
2019-05-20T00:56:30.196Z,10.31
2019-05-20T00:56:35.199Z,9.55
2019-05-20T00:56:40.198Z,10.02
2019-05-20T00:56:45.198Z,9.42
2019-05-20T00:56:50.200Z,8.22
2019-05-20T00:56:55.201Z,8.62
2019-05-20T00:57:00.205Z,8.79
2019-05-20T00:57:05.204Z,8.67
2019-05-20T00:57:10.205Z,7.98
2019-05-20T00:57:15.204Z,7.91
2019-05-20T00:57:20.206Z,8.15
2019-05-20T00:57:25.207Z,9.27
2019-05-20T00:57:30.213Z,7.88
2019-05-20T00:57:35.211Z,9.55
2019-05-20T00:57:40.212Z,10.39
2019-05-20T00:57:45.236Z,8.97
2019-05-20T00:57:50.214Z,9.48
2019-05-20T00:57:55.216Z,8.96
2019-05-20T00:58:00.216Z,8.90
2019-05-20T00:58:05.220Z,7.76
2019-05-20T00:58:10.224Z,8.10
2019-05-20T00:58:15.218Z,7.50
2019-05-20T00:58:20.221Z,6.63
2019-05-20T00:58:25.221Z,6.65
2019-05-20T00:58:30.223Z,7.02
2019-05-20T00:58:35.223Z,7.44
2019-05-20T00:58:40.318Z,7.28
2019-05-20T00:58:45.224Z,6.86
2019-05-20T00:58:50.225Z,7.09
2019-05-20T00:58:55.227Z,7.16
2019-05-20T00:59:00.227Z,7.19
2019-05-20T00:59:05.231Z,8.49
2019-05-20T00:59:10.230Z,8.75
2019-05-20T00:59:15.230Z,7.71
2019-05-20T00:59:20.231Z,7.83
2019-05-20T00:59:25.232Z,7.77
2019-05-20T00:59:30.234Z,7.76
2019-05-20T00:59:35.237Z,9.05
2019-05-20T00:59:40.236Z,8.10
2019-05-20T00:59:45.236Z,9.25
2019-05-20T00:59:50.237Z,8.17
2019-05-20T00:59:55.239Z,9.27
2019-05-20T01:00:00.238Z,9.00
2019-05-20T01:00:05.247Z,7.79
2019-05-20T01:00:10.254Z,7.39
2019-05-20T01:00:15.246Z,9.22
2019-05-20T01:00:20.245Z,8.69
2019-05-20T01:00:25.243Z,8.41
2019-05-20T01:00:30.245Z,10.02
2019-05-20T01:00:35.246Z,10.54
2019-05-20T01:00:40.247Z,10.72
2019-05-20T01:00:45.247Z,10.77
2019-05-20T01:00:50.254Z,10.79
2019-05-20T01:00:55.251Z,10.80
2019-05-20T01:01:00.251Z,10.80
2019-05-20T01:01:05.252Z,10.80
2019-05-20T01:01:10.252Z,10.80
2019-05-20T01:01:15.254Z,10.80
2019-05-20T01:01:20.254Z,10.80
2019-05-20T01:01:25.255Z,10.80
2019-05-20T01:01:30.255Z,10.80
2019-05-20T01:01:35.257Z,10.80
2019-05-20T01:01:40.262Z,10.51
2019-05-20T01:01:45.264Z,10.41
2019-05-20T01:01:50.262Z,10.67
2019-05-20T01:01:55.263Z,10.76
2019-05-20T01:02:00.262Z,10.79
2019-05-20T01:02:05.267Z,10.80
2019-05-20T01:02:10.265Z,10.80
2019-05-20T01:02:15.265Z,10.80
2019-05-20T01:02:20.317Z,10.80
2019-05-20T01:02:25.270Z,10.80
2019-05-20T01:02:30.268Z,10.80
2019-05-20T01:02:35.269Z,10.80
2019-05-20T01:02:40.271Z,10.80
2019-05-20T01:02:45.272Z,10.80
2019-05-20T01:02:50.275Z,10.80
2019-05-20T01:02:55.274Z,10.80
2019-05-20T01:03:00.275Z,10.80
2019-05-20T01:03:05.275Z,10.80
2019-05-20T01:03:10.330Z,10.80
2019-05-20T01:03:15.283Z,10.80
2019-05-20T01:03:20.278Z,11.52
2019-05-20T01:03:25.280Z,11.04
2019-05-20T01:03:30.280Z,10.88
2019-05-20T01:03:35.285Z,10.83
2019-05-20T01:03:40.281Z,10.81
2019-05-20T01:03:45.284Z,11.52
2019-05-20T01:03:50.284Z,11.04
2019-05-20T01:03:55.285Z,10.88
2019-05-20T01:04:00.378Z,10.83
2019-05-20T01:04:05.288Z,10.81
2019-05-20T01:04:10.290Z,10.80
2019-05-20T01:04:15.570Z,10.80
2019-05-20T01:04:20.291Z,10.80
2019-05-20T01:04:25.295Z,10.80
2019-05-20T01:04:30.292Z,10.80
2019-05-20T01:04:35.293Z,10.80
2019-05-20T01:04:40.297Z,10.80
2019-05-20T01:04:45.295Z,10.80
2019-05-20T01:04:50.307Z,10.80
2019-05-20T01:04:55.300Z,10.80
2019-05-20T01:05:00.296Z,10.80
2019-05-20T01:05:05.300Z,10.80
2019-05-20T01:05:10.300Z,10.80
2019-05-20T01:05:15.302Z,10.80
2019-05-20T01:05:20.303Z,10.80
2019-05-20T01:05:25.303Z,10.80